Fado — MVXL2 — position and weather

sailwx.info

Track history (hours):
 
Tides and Currents Weather Stations Pressure Air Temp Water Temp Dewpoint Dewpoint Depression Visibility Wind Speed Wind Dir Waves Ship Positions

Fado

Last reported at 2018-Jul-09 09:09 UTC. Time now 2018-Jul-16 04:51 UTC.
Position N 40°47' E 014°08'.

Length 30 m.

Type: Sailing vessel. MMSI: 235057245.

Date/timePositionNaut miles runAvg speedWind from/ knotsBaromVisibWave heightAir tempDewpointWater temp
2018-Jul-09 09:09N 40°47' E 014°08'5 1.7
2018-Jul-09 06:21N 40°50' E 014°14'0 0.0
2018-Jul-09 04:36N 40°50' E 014°14'0 0.0
2018-Jul-09 04:09N 40°50' E 014°14'0 0.0
2018-Jul-09 02:15N 40°50' E 014°14'0 0.0
2018-Jul-08 20:06N 40°50' E 014°14'0 0.0
2018-Jul-08 19:12N 40°50' E 014°14'0 0.0
2018-Jul-08 18:48N 40°50' E 014°14'0 0.0
2018-Jul-08 18:18N 40°50' E 014°14'1 1.8
2018-Jul-08 17:57N 40°49' E 014°14'3 6.3
2018-Jul-08 17:30N 40°47' E 014°12'10 0.3
2018-Jul-07 06:54N 40°37' E 014°14'3 0.2
2018-Jul-06 14:12N 40°37' E 014°18'311.6
2018-Jul-06 13:56N 40°40' E 014°17'  
Track history (hours):
 
Tides and Currents Weather Stations Pressure Air Temp Water Temp Dewpoint Dewpoint Depression Visibility Wind Speed Wind Dir Waves Ship Positions

Fado

Last reported at 2018-Jul-09 09:09 UTC. Time now 2018-Jul-16 04:51 UTC.
Position N 40°47' E 014°08'.

Length 30 m.

Type: Sailing vessel. MMSI: 235057245.

Date/timePositionNaut miles runAvg speedWind from/ knotsBaromVisibWave heightAir tempDewpointWater temp
2018-Jul-09 09:09N 40°47' E 014°08'5 1.7
2018-Jul-09 06:21N 40°50' E 014°14'0 0.0
2018-Jul-09 04:36N 40°50' E 014°14'0 0.0
2018-Jul-09 04:09N 40°50' E 014°14'0 0.0
2018-Jul-09 02:15N 40°50' E 014°14'0 0.0
2018-Jul-08 20:06N 40°50' E 014°14'0 0.0
2018-Jul-08 19:12N 40°50' E 014°14'0 0.0
2018-Jul-08 18:48N 40°50' E 014°14'0 0.0
2018-Jul-08 18:18N 40°50' E 014°14'1 1.8
2018-Jul-08 17:57N 40°49' E 014°14'3 6.3
2018-Jul-08 17:30N 40°47' E 014°12'10 0.3
2018-Jul-07 06:54N 40°37' E 014°14'3 0.2
2018-Jul-06 14:12N 40°37' E 014°18'311.6
2018-Jul-06 13:56N 40°40' E 014°17'  

Dump ship's entire track history